Главная страница
METAR-TAF:

METAR-TAF

Аэропорты :

Йювяскюля

Ювяскюля, Финляндия

широта: 62-24N, долгота: 025-41E, высота над уровнем моря: 141 м

Текущие метеонаблюдения

Эта сводка был подготовлена 19 минут назад, в 15:20 UTC
Ветер 5 Узел от северный
Температура 20°C
Влажность 40%
Давление 1011 hPa
Видимость 10 км и более
Нет облачности ниже 1500 м, и нет кучево-дождевой облачности

METAR: EFJY 221520Z AUTO 36005KT CAVOK 20/06 Q1011

Время: 18:39 (15:39 UTC)

Прогноз

Эта сводка был подготовлена 1 час и 5 минут назад, в 14:34 UTC
Прогноз действительный с 22-го 15 UTC до 23-го 15 UTC
Ветер 4 Узел от северный
Видимость 10 км и более
Нет облачности ниже 1500 м, и нет кучево-дождевой облачности

TAF: EFJY 221434Z 2215/2315 36004KT CAVOK

Метеонаблюдения и прогнозы для более 4000 аэропортов (сводки METAR и TAF).

Имеющиеся станции представлены на карте желтыми и красными точками.

Чтобы увидеть название станции, наведите на нее мышь.

Затем щелкните, чтобы увидеть метеонаблюдения и метеопрогнозы.

Управление картой: чтобы увеличить масштаб, щелкните зеленые кнопки с черным крестиком; чтобы уменьшить масштаб, щелкните зеленую кнопку с тире; для просмотра соседних карт щелкайте зеленые стрелки.


METAR-TAF: